sensor_id;sensor_type;location;lat;lon;timestamp;pressure;altitude;pressure_sealevel;temperature;humidity
30081;BME280;16902;50.816;12.828;2024-03-02T00:00:08;96742.47;;;5.20;100.00
30081;BME280;16902;50.816;12.828;2024-03-02T00:05:19;96736.22;;;5.14;100.00
30081;BME280;16902;50.816;12.828;2024-03-02T00:10:24;96733.66;;;5.06;100.00
30081;BME280;16902;50.816;12.828;2024-03-02T00:15:46;96733.38;;;5.01;100.00
30081;BME280;16902;50.816;12.828;2024-03-02T00:20:53;96728.50;;;5.06;100.00
30081;BME280;16902;50.816;12.828;2024-03-02T00:25:55;96726.09;;;5.04;100.00
30081;BME280;16902;50.816;12.828;2024-03-02T00:36:07;96728.09;;;4.94;100.00
30081;BME280;16902;50.816;12.828;2024-03-02T00:41:24;96724.16;;;5.06;100.00
30081;BME280;16902;50.816;12.828;2024-03-02T00:46:33;96727.38;;;5.08;100.00
30081;BME280;16902;50.816;12.828;2024-03-02T00:51:35;96720.59;;;5.07;100.00
30081;BME280;16902;50.816;12.828;2024-03-02T00:56:38;96723.03;;;5.09;100.00
30081;BME280;16902;50.816;12.828;2024-03-02T01:01:40;96723.81;;;5.09;100.00
30081;BME280;16902;50.816;12.828;2024-03-02T01:06:42;96729.00;;;5.01;100.00
30081;BME280;16902;50.816;12.828;2024-03-02T01:11:45;96725.31;;;5.04;100.00
30081;BME280;16902;50.816;12.828;2024-03-02T01:16:47;96721.25;;;5.09;100.00
30081;BME280;16902;50.816;12.828;2024-03-02T01:21:48;96712.00;;;5.15;100.00
30081;BME280;16902;50.816;12.828;2024-03-02T01:26:52;96717.50;;;5.12;100.00
30081;BME280;16902;50.816;12.828;2024-03-02T01:31:54;96711.53;;;5.11;100.00
30081;BME280;16902;50.816;12.828;2024-03-02T01:36:56;96710.69;;;5.19;100.00
30081;BME280;16902;50.816;12.828;2024-03-02T01:41:58;96708.63;;;5.14;100.00
30081;BME280;16902;50.816;12.828;2024-03-02T01:46:59;96710.69;;;5.19;100.00
30081;BME280;16902;50.816;12.828;2024-03-02T01:52:01;96704.28;;;5.15;100.00
30081;BME280;16902;50.816;12.828;2024-03-02T01:57:03;96697.50;;;5.14;100.00
30081;BME280;16902;50.816;12.828;2024-03-02T02:02:05;96695.44;;;5.09;100.00
30081;BME280;16902;50.816;12.828;2024-03-02T02:07:08;96700.31;;;5.04;100.00
30081;BME280;16902;50.816;12.828;2024-03-02T02:12:10;96700.03;;;4.99;100.00
30081;BME280;16902;50.816;12.828;2024-03-02T02:17:12;96697.09;;;5.02;100.00
30081;BME280;16902;50.816;12.828;2024-03-02T02:22:14;96689.34;;;5.02;100.00
30081;BME280;16902;50.816;12.828;2024-03-02T02:27:16;96695.69;;;4.92;100.00
30081;BME280;16902;50.816;12.828;2024-03-02T02:32:17;96699.78;;;4.86;100.00
30081;BME280;16902;50.816;12.828;2024-03-02T02:37:19;96689.56;;;4.93;100.00
30081;BME280;16902;50.816;12.828;2024-03-02T02:42:21;96683.56;;;5.00;100.00
30081;BME280;16902;50.816;12.828;2024-03-02T02:47:23;96690.50;;;5.00;100.00
30081;BME280;16902;50.816;12.828;2024-03-02T02:52:25;96698.44;;;4.98;100.00
30081;BME280;16902;50.816;12.828;2024-03-02T02:57:27;96702.16;;;4.87;100.00
30081;BME280;16902;50.816;12.828;2024-03-02T03:02:31;96701.34;;;4.95;100.00
30081;BME280;16902;50.816;12.828;2024-03-02T03:07:34;96698.25;;;5.00;100.00
30081;BME280;16902;50.816;12.828;2024-03-02T03:12:39;96699.81;;;5.09;100.00
30081;BME280;16902;50.816;12.828;2024-03-02T03:17:42;96691.41;;;5.07;100.00
30081;BME280;16902;50.816;12.828;2024-03-02T03:22:44;96690.16;;;5.03;100.00
30081;BME280;16902;50.816;12.828;2024-03-02T03:27:46;96686.91;;;5.09;100.00
30081;BME280;16902;50.816;12.828;2024-03-02T03:32:48;96693.94;;;5.15;100.00
30081;BME280;16902;50.816;12.828;2024-03-02T03:37:50;96700.13;;;5.06;100.00
30081;BME280;16902;50.816;12.828;2024-03-02T03:42:53;96704.72;;;4.96;100.00
30081;BME280;16902;50.816;12.828;2024-03-02T03:47:57;96695.31;;;5.03;100.00
30081;BME280;16902;50.816;12.828;2024-03-02T03:52:59;96700.94;;;5.06;100.00
30081;BME280;16902;50.816;12.828;2024-03-02T03:58:01;96708.81;;;5.13;100.00
30081;BME280;16902;50.816;12.828;2024-03-02T04:03:03;96721.84;;;5.11;100.00
30081;BME280;16902;50.816;12.828;2024-03-02T04:08:05;96720.16;;;5.04;100.00
30081;BME280;16902;50.816;12.828;2024-03-02T04:13:07;96734.31;;;5.08;100.00
30081;BME280;16902;50.816;12.828;2024-03-02T04:18:09;96732.84;;;5.13;100.00
30081;BME280;16902;50.816;12.828;2024-03-02T04:23:11;96724.91;;;5.15;100.00
30081;BME280;16902;50.816;12.828;2024-03-02T04:28:13;96726.00;;;5.21;100.00
30081;BME280;16902;50.816;12.828;2024-03-02T04:33:14;96731.66;;;5.16;100.00
30081;BME280;16902;50.816;12.828;2024-03-02T04:38:17;96732.31;;;5.18;100.00
30081;BME280;16902;50.816;12.828;2024-03-02T04:43:18;96742.84;;;5.08;100.00
30081;BME280;16902;50.816;12.828;2024-03-02T04:48:20;96749.31;;;5.04;100.00
30081;BME280;16902;50.816;12.828;2024-03-02T04:53:24;96754.34;;;4.98;100.00
30081;BME280;16902;50.816;12.828;2024-03-02T04:58:25;96755.31;;;4.97;100.00
30081;BME280;16902;50.816;12.828;2024-03-02T05:03:28;96759.34;;;4.99;100.00
30081;BME280;16902;50.816;12.828;2024-03-02T05:08:30;96770.44;;;5.08;100.00
30081;BME280;16902;50.816;12.828;2024-03-02T05:13:31;96773.34;;;5.05;100.00
30081;BME280;16902;50.816;12.828;2024-03-02T05:18:33;96777.41;;;4.99;100.00
30081;BME280;16902;50.816;12.828;2024-03-02T05:23:35;96788.34;;;5.01;100.00
30081;BME280;16902;50.816;12.828;2024-03-02T05:28:37;96783.94;;;5.10;100.00
30081;BME280;16902;50.816;12.828;2024-03-02T05:33:39;96787.44;;;5.17;100.00
30081;BME280;16902;50.816;12.828;2024-03-02T05:38:41;96790.34;;;5.22;100.00
30081;BME280;16902;50.816;12.828;2024-03-02T05:43:43;96790.03;;;5.17;100.00
30081;BME280;16902;50.816;12.828;2024-03-02T05:48:45;96798.69;;;5.32;100.00
30081;BME280;16902;50.816;12.828;2024-03-02T05:53:47;96797.69;;;5.33;100.00
30081;BME280;16902;50.816;12.828;2024-03-02T05:58:49;96803.84;;;5.32;100.00
30081;BME280;16902;50.816;12.828;2024-03-02T06:03:57;96800.59;;;5.30;100.00
30081;BME280;16902;50.816;12.828;2024-03-02T06:09:01;96802.06;;;5.33;100.00
30081;BME280;16902;50.816;12.828;2024-03-02T06:14:08;96818.34;;;5.33;100.00
30081;BME280;16902;50.816;12.828;2024-03-02T06:19:10;96818.53;;;5.32;100.00
30081;BME280;16902;50.816;12.828;2024-03-02T06:24:12;96827.69;;;5.34;100.00
30081;BME280;16902;50.816;12.828;2024-03-02T06:29:14;96824.41;;;5.40;100.00
30081;BME280;16902;50.816;12.828;2024-03-02T06:34:16;96827.00;;;5.40;100.00
30081;BME280;16902;50.816;12.828;2024-03-02T06:39:17;96825.50;;;5.46;100.00
30081;BME280;16902;50.816;12.828;2024-03-02T06:44:19;96829.16;;;5.60;100.00
30081;BME280;16902;50.816;12.828;2024-03-02T06:49:22;96839.25;;;5.70;100.00
30081;BME280;16902;50.816;12.828;2024-03-02T06:54:24;96836.06;;;5.90;100.00
30081;BME280;16902;50.816;12.828;2024-03-02T06:59:26;96842.72;;;6.08;100.00
30081;BME280;16902;50.816;12.828;2024-03-02T07:04:28;96836.59;;;6.24;100.00
30081;BME280;16902;50.816;12.828;2024-03-02T07:09:30;96834.44;;;6.50;100.00
30081;BME280;16902;50.816;12.828;2024-03-02T07:14:32;96829.56;;;6.85;100.00
30081;BME280;16902;50.816;12.828;2024-03-02T07:20:06;96837.47;;;7.28;100.00
30081;BME280;16902;50.816;12.828;2024-03-02T07:25:08;96843.13;;;7.53;100.00
30081;BME280;16902;50.816;12.828;2024-03-02T07:30:30;96843.72;;;7.69;100.00
30081;BME280;16902;50.816;12.828;2024-03-02T07:35:34;96852.66;;;7.88;100.00
30081;BME280;16902;50.816;12.828;2024-03-02T07:40:36;96850.63;;;8.05;100.00
30081;BME280;16902;50.816;12.828;2024-03-02T07:45:38;96846.94;;;8.21;100.00
30081;BME280;16902;50.816;12.828;2024-03-02T07:50:40;96844.47;;;8.34;100.00
30081;BME280;16902;50.816;12.828;2024-03-02T07:55:42;96857.94;;;8.44;100.00
30081;BME280;16902;50.816;12.828;2024-03-02T08:00:45;96862.09;;;8.39;100.00
30081;BME280;16902;50.816;12.828;2024-03-02T08:05:47;96857.56;;;8.26;100.00
30081;BME280;16902;50.816;12.828;2024-03-02T08:10:48;96866.41;;;8.32;100.00
30081;BME280;16902;50.816;12.828;2024-03-02T08:15:51;96864.88;;;8.37;100.00
30081;BME280;16902;50.816;12.828;2024-03-02T08:20:53;96865.97;;;8.49;100.00
30081;BME280;16902;50.816;12.828;2024-03-02T08:25:55;96861.16;;;8.46;100.00
30081;BME280;16902;50.816;12.828;2024-03-02T08:30:56;96867.94;;;8.26;100.00
30081;BME280;16902;50.816;12.828;2024-03-02T08:35:59;96876.22;;;8.36;100.00
30081;BME280;16902;50.816;12.828;2024-03-02T08:41:01;96879.41;;;8.60;100.00
30081;BME280;16902;50.816;12.828;2024-03-02T08:46:03;96879.28;;;8.68;100.00
30081;BME280;16902;50.816;12.828;2024-03-02T08:51:05;96888.28;;;8.44;100.00
30081;BME280;16902;50.816;12.828;2024-03-02T08:56:09;96890.31;;;8.48;100.00
30081;BME280;16902;50.816;12.828;2024-03-02T09:01:11;96895.59;;;8.62;100.00
30081;BME280;16902;50.816;12.828;2024-03-02T09:06:13;96897.53;;;8.81;100.00
30081;BME280;16902;50.816;12.828;2024-03-02T09:11:16;96909.75;;;8.59;100.00
30081;BME280;16902;50.816;12.828;2024-03-02T09:16:17;96918.56;;;8.65;100.00
30081;BME280;16902;50.816;12.828;2024-03-02T09:21:19;96917.09;;;8.56;100.00
30081;BME280;16902;50.816;12.828;2024-03-02T09:26:21;96917.34;;;8.39;100.00
30081;BME280;16902;50.816;12.828;2024-03-02T09:31:24;96923.16;;;8.63;100.00
30081;BME280;16902;50.816;12.828;2024-03-02T09:36:26;96912.09;;;8.82;100.00
30081;BME280;16902;50.816;12.828;2024-03-02T09:41:28;96908.97;;;8.93;100.00
30081;BME280;16902;50.816;12.828;2024-03-02T09:46:30;96900.94;;;9.16;100.00
30081;BME280;16902;50.816;12.828;2024-03-02T09:51:32;96903.84;;;9.96;100.00
30081;BME280;16902;50.816;12.828;2024-03-02T09:56:34;96904.16;;;10.47;100.00
30081;BME280;16902;50.816;12.828;2024-03-02T10:01:36;96904.97;;;10.54;100.00
30081;BME280;16902;50.816;12.828;2024-03-02T10:06:37;96906.97;;;10.59;100.00
30081;BME280;16902;50.816;12.828;2024-03-02T10:11:39;96898.34;;;10.52;100.00
30081;BME280;16902;50.816;12.828;2024-03-02T10:16:43;96896.56;;;10.59;100.00
30081;BME280;16902;50.816;12.828;2024-03-02T10:21:54;96904.91;;;11.72;100.00
30081;BME280;16902;50.816;12.828;2024-03-02T10:26:56;96906.41;;;12.00;100.00
30081;BME280;16902;50.816;12.828;2024-03-02T10:32:02;96898.34;;;12.83;100.00
30081;BME280;16902;50.816;12.828;2024-03-02T10:37:05;96898.03;;;13.16;100.00
30081;BME280;16902;50.816;12.828;2024-03-02T10:42:08;96891.75;;;13.24;100.00
30081;BME280;16902;50.816;12.828;2024-03-02T10:47:12;96881.50;;;14.19;100.00
30081;BME280;16902;50.816;12.828;2024-03-02T10:52:15;96878.00;;;14.37;100.00
30081;BME280;16902;50.816;12.828;2024-03-02T10:57:21;96876.34;;;13.52;100.00
30081;BME280;16902;50.816;12.828;2024-03-02T11:02:25;96873.78;;;13.94;100.00
30081;BME280;16902;50.816;12.828;2024-03-02T11:07:29;96861.22;;;12.99;100.00
30081;BME280;16902;50.816;12.828;2024-03-02T11:17:38;96872.53;;;16.47;100.00
30081;BME280;16902;50.816;12.828;2024-03-02T11:22:42;96876.91;;;16.58;100.00
30081;BME280;16902;50.816;12.828;2024-03-02T11:32:55;96875.25;;;18.44;100.00
30081;BME280;16902;50.816;12.828;2024-03-02T11:37:57;96868.44;;;17.06;100.00
30081;BME280;16902;50.816;12.828;2024-03-02T11:43:02;96860.63;;;17.11;100.00
30081;BME280;16902;50.816;12.828;2024-03-02T11:48:06;96874.97;;;19.15;100.00
30081;BME280;16902;50.816;12.828;2024-03-02T11:53:10;96857.03;;;17.83;100.00
30081;BME280;16902;50.816;12.828;2024-03-02T11:58:14;96868.41;;;19.95;100.00
30081;BME280;16902;50.816;12.828;2024-03-02T12:03:21;96857.81;;;21.08;100.00
30081;BME280;16902;50.816;12.828;2024-03-02T12:08:28;96858.69;;;22.17;100.00
30081;BME280;16902;50.816;12.828;2024-03-02T12:13:29;96855.47;;;20.96;100.00
30081;BME280;16902;50.816;12.828;2024-03-02T12:18:31;96848.34;;;16.28;100.00
30081;BME280;16902;50.816;12.828;2024-03-02T12:23:34;96835.78;;;13.92;100.00
30081;BME280;16902;50.816;12.828;2024-03-02T12:28:36;96835.84;;;15.61;100.00
30081;BME280;16902;50.816;12.828;2024-03-02T12:33:38;96831.94;;;17.10;100.00
30081;BME280;16902;50.816;12.828;2024-03-02T12:38:44;96836.09;;;17.98;100.00
30081;BME280;16902;50.816;12.828;2024-03-02T12:43:46;96831.59;;;17.72;100.00
30081;BME280;16902;50.816;12.828;2024-03-02T12:48:48;96833.53;;;18.04;100.00
30081;BME280;16902;50.816;12.828;2024-03-02T12:53:59;96818.91;;;17.20;100.00
30081;BME280;16902;50.816;12.828;2024-03-02T12:59:01;96821.31;;;18.24;100.00
30081;BME280;16902;50.816;12.828;2024-03-02T13:04:03;96809.88;;;16.72;100.00
30081;BME280;16902;50.816;12.828;2024-03-02T13:09:05;96811.81;;;16.99;100.00
30081;BME280;16902;50.816;12.828;2024-03-02T13:14:17;96808.81;;;18.10;100.00
30081;BME280;16902;50.816;12.828;2024-03-02T13:19:19;96803.66;;;18.57;100.00
30081;BME280;16902;50.816;12.828;2024-03-02T13:24:21;96803.09;;;18.97;100.00
30081;BME280;16902;50.816;12.828;2024-03-02T13:29:24;96802.28;;;17.14;100.00
30081;BME280;16902;50.816;12.828;2024-03-02T13:34:26;96793.94;;;15.49;100.00
30081;BME280;16902;50.816;12.828;2024-03-02T13:39:27;96797.78;;;15.87;100.00
30081;BME280;16902;50.816;12.828;2024-03-02T13:44:32;96797.72;;;18.77;100.00
30081;BME280;16902;50.816;12.828;2024-03-02T13:49:34;96790.59;;;18.72;100.00
30081;BME280;16902;50.816;12.828;2024-03-02T13:54:41;96796.25;;;18.96;100.00
30081;BME280;16902;50.816;12.828;2024-03-02T13:59:44;96793.59;;;18.54;100.00
30081;BME280;16902;50.816;12.828;2024-03-02T14:04:48;96782.19;;;18.43;100.00
30081;BME280;16902;50.816;12.828;2024-03-02T14:09:50;96787.78;;;18.94;100.00
30081;BME280;16902;50.816;12.828;2024-03-02T14:14:52;96786.09;;;15.94;100.00
30081;BME280;16902;50.816;12.828;2024-03-02T14:19:57;96774.91;;;15.42;100.00
30081;BME280;16902;50.816;12.828;2024-03-02T14:25:00;96769.19;;;15.16;100.00
30081;BME280;16902;50.816;12.828;2024-03-02T14:30:02;96760.47;;;13.94;100.00
30081;BME280;16902;50.816;12.828;2024-03-02T14:35:05;96762.81;;;13.72;100.00
30081;BME280;16902;50.816;12.828;2024-03-02T14:40:07;96754.47;;;13.03;100.00
30081;BME280;16902;50.816;12.828;2024-03-02T14:45:11;96760.56;;;12.78;100.00
30081;BME280;16902;50.816;12.828;2024-03-02T14:50:13;96759.50;;;12.68;100.00
30081;BME280;16902;50.816;12.828;2024-03-02T14:55:18;96753.94;;;12.39;100.00
30081;BME280;16902;50.816;12.828;2024-03-02T15:00:20;96745.38;;;12.32;100.00
30081;BME280;16902;50.816;12.828;2024-03-02T15:05:22;96742.91;;;12.19;100.00
30081;BME280;16902;50.816;12.828;2024-03-02T15:10:24;96738.31;;;12.14;100.00
30081;BME280;16902;50.816;12.828;2024-03-02T15:15:26;96740.72;;;11.91;100.00
30081;BME280;16902;50.816;12.828;2024-03-02T15:20:28;96735.34;;;11.86;100.00
30081;BME280;16902;50.816;12.828;2024-03-02T15:25:30;96732.34;;;11.82;100.00
30081;BME280;16902;50.816;12.828;2024-03-02T15:30:32;96747.00;;;11.51;100.00
30081;BME280;16902;50.816;12.828;2024-03-02T15:35:34;96746.72;;;11.28;100.00
30081;BME280;16902;50.816;12.828;2024-03-02T15:40:36;96738.41;;;11.06;100.00
30081;BME280;16902;50.816;12.828;2024-03-02T15:45:37;96738.31;;;10.81;100.00
30081;BME280;16902;50.816;12.828;2024-03-02T15:50:39;96740.19;;;10.61;100.00
30081;BME280;16902;50.816;12.828;2024-03-02T15:55:41;96735.03;;;10.34;100.00
30081;BME280;16902;50.816;12.828;2024-03-02T16:00:43;96737.81;;;10.19;100.00
30081;BME280;16902;50.816;12.828;2024-03-02T16:05:45;96731.63;;;10.07;100.00
30081;BME280;16902;50.816;12.828;2024-03-02T16:10:47;96729.84;;;9.81;100.00
30081;BME280;16902;50.816;12.828;2024-03-02T16:15:49;96733.25;;;9.75;100.00
30081;BME280;16902;50.816;12.828;2024-03-02T16:20:51;96731.63;;;9.54;100.00
30081;BME280;16902;50.816;12.828;2024-03-02T16:25:53;96737.22;;;9.44;100.00
30081;BME280;16902;50.816;12.828;2024-03-02T16:30:55;96735.75;;;9.22;100.00
30081;BME280;16902;50.816;12.828;2024-03-02T16:35:57;96736.13;;;9.06;100.00
30081;BME280;16902;50.816;12.828;2024-03-02T16:40:59;96743.25;;;8.90;100.00
30081;BME280;16902;50.816;12.828;2024-03-02T16:46:01;96746.72;;;8.63;100.00
30081;BME280;16902;50.816;12.828;2024-03-02T16:51:03;96752.72;;;8.35;100.00
30081;BME280;16902;50.816;12.828;2024-03-02T16:56:05;96745.00;;;8.14;100.00
30081;BME280;16902;50.816;12.828;2024-03-02T17:01:07;96750.97;;;7.86;100.00
30081;BME280;16902;50.816;12.828;2024-03-02T17:06:10;96760.41;;;7.72;100.00
30081;BME280;16902;50.816;12.828;2024-03-02T17:11:12;96773.38;;;7.72;100.00
30081;BME280;16902;50.816;12.828;2024-03-02T17:16:14;96776.16;;;7.71;100.00
30081;BME280;16902;50.816;12.828;2024-03-02T17:21:17;96773.00;;;7.54;100.00
30081;BME280;16902;50.816;12.828;2024-03-02T17:26:19;96772.44;;;7.59;100.00
30081;BME280;16902;50.816;12.828;2024-03-02T17:31:21;96774.91;;;7.45;100.00
30081;BME280;16902;50.816;12.828;2024-03-02T17:36:23;96790.06;;;7.48;100.00
30081;BME280;16902;50.816;12.828;2024-03-02T17:41:25;96783.16;;;7.34;100.00
30081;BME280;16902;50.816;12.828;2024-03-02T17:46:27;96792.59;;;7.20;100.00
30081;BME280;16902;50.816;12.828;2024-03-02T17:51:29;96794.34;;;7.20;100.00
30081;BME280;16902;50.816;12.828;2024-03-02T17:56:31;96798.91;;;7.18;100.00
30081;BME280;16902;50.816;12.828;2024-03-02T18:01:33;96793.16;;;7.01;100.00
30081;BME280;16902;50.816;12.828;2024-03-02T18:06:36;96793.72;;;6.82;100.00
30081;BME280;16902;50.816;12.828;2024-03-02T18:11:38;96793.00;;;6.73;100.00
30081;BME280;16902;50.816;12.828;2024-03-02T18:16:41;96789.09;;;6.62;100.00
30081;BME280;16902;50.816;12.828;2024-03-02T18:21:43;96793.88;;;6.51;100.00
30081;BME280;16902;50.816;12.828;2024-03-02T18:26:47;96794.75;;;6.43;100.00
30081;BME280;16902;50.816;12.828;2024-03-02T18:31:49;96790.47;;;6.35;100.00
30081;BME280;16902;50.816;12.828;2024-03-02T18:36:52;96785.31;;;6.35;100.00
30081;BME280;16902;50.816;12.828;2024-03-02T18:41:56;96787.69;;;6.22;100.00
30081;BME280;16902;50.816;12.828;2024-03-02T18:46:58;96779.72;;;6.09;100.00
30081;BME280;16902;50.816;12.828;2024-03-02T18:52:00;96778.56;;;5.97;100.00
30081;BME280;16902;50.816;12.828;2024-03-02T18:57:02;96774.06;;;5.90;100.00
30081;BME280;16902;50.816;12.828;2024-03-02T19:02:05;96784.13;;;5.85;100.00
30081;BME280;16902;50.816;12.828;2024-03-02T19:07:07;96786.41;;;5.80;100.00
30081;BME280;16902;50.816;12.828;2024-03-02T19:12:09;96775.44;;;5.78;100.00
30081;BME280;16902;50.816;12.828;2024-03-02T19:17:11;96777.44;;;5.91;100.00
30081;BME280;16902;50.816;12.828;2024-03-02T19:22:13;96778.50;;;5.82;100.00
30081;BME280;16902;50.816;12.828;2024-03-02T19:27:15;96766.06;;;5.62;100.00
30081;BME280;16902;50.816;12.828;2024-03-02T19:32:17;96763.97;;;5.58;100.00
30081;BME280;16902;50.816;12.828;2024-03-02T19:37:23;96757.97;;;5.43;100.00
30081;BME280;16902;50.816;12.828;2024-03-02T19:42:25;96755.31;;;5.28;100.00
30081;BME280;16902;50.816;12.828;2024-03-02T19:47:27;96752.16;;;5.40;100.00
30081;BME280;16902;50.816;12.828;2024-03-02T19:52:30;96748.25;;;5.22;100.00
30081;BME280;16902;50.816;12.828;2024-03-02T19:57:32;96739.91;;;5.11;100.00
30081;BME280;16902;50.816;12.828;2024-03-02T20:02:42;96733.38;;;5.01;100.00
30081;BME280;16902;50.816;12.828;2024-03-02T20:07:44;96731.31;;;4.96;100.00
30081;BME280;16902;50.816;12.828;2024-03-02T20:12:46;96733.41;;;4.93;100.00
30081;BME280;16902;50.816;12.828;2024-03-02T20:17:49;96725.28;;;4.73;100.00
30081;BME280;16902;50.816;12.828;2024-03-02T20:22:51;96717.75;;;4.63;100.00
30081;BME280;16902;50.816;12.828;2024-03-02T20:27:53;96704.94;;;4.55;100.00
30081;BME280;16902;50.816;12.828;2024-03-02T20:32:55;96708.31;;;4.55;100.00
30081;BME280;16902;50.816;12.828;2024-03-02T20:37:57;96700.63;;;4.39;100.00
30081;BME280;16902;50.816;12.828;2024-03-02T20:43:00;96698.28;;;4.21;100.00
30081;BME280;16902;50.816;12.828;2024-03-02T20:48:02;96694.38;;;4.25;100.00
30081;BME280;16902;50.816;12.828;2024-03-02T20:53:04;96684.72;;;4.35;100.00
30081;BME280;16902;50.816;12.828;2024-03-02T20:58:08;96684.22;;;4.32;100.00
30081;BME280;16902;50.816;12.828;2024-03-02T21:03:10;96683.94;;;4.19;100.00
30081;BME280;16902;50.816;12.828;2024-03-02T21:08:13;96676.72;;;4.06;100.00
30081;BME280;16902;50.816;12.828;2024-03-02T21:13:15;96665.00;;;4.03;100.00
30081;BME280;16902;50.816;12.828;2024-03-02T21:18:17;96662.28;;;3.97;100.00
30081;BME280;16902;50.816;12.828;2024-03-02T21:23:19;96665.38;;;3.92;100.00
30081;BME280;16902;50.816;12.828;2024-03-02T21:28:22;96661.84;;;3.77;100.00
30081;BME280;16902;50.816;12.828;2024-03-02T21:33:27;96658.31;;;3.70;100.00
30081;BME280;16902;50.816;12.828;2024-03-02T21:38:29;96661.06;;;3.60;100.00
30081;BME280;16902;50.816;12.828;2024-03-02T21:43:32;96666.69;;;3.55;100.00
30081;BME280;16902;50.816;12.828;2024-03-02T21:48:35;96668.78;;;3.52;100.00
30081;BME280;16902;50.816;12.828;2024-03-02T21:53:36;96654.66;;;3.40;100.00
30081;BME280;16902;50.816;12.828;2024-03-02T21:58:39;96655.63;;;3.39;100.00
30081;BME280;16902;50.816;12.828;2024-03-02T22:03:41;96651.25;;;3.47;100.00
30081;BME280;16902;50.816;12.828;2024-03-02T22:08:47;96641.00;;;3.39;100.00
30081;BME280;16902;50.816;12.828;2024-03-02T22:13:49;96630.88;;;3.21;100.00
30081;BME280;16902;50.816;12.828;2024-03-02T22:18:51;96637.47;;;3.16;100.00
30081;BME280;16902;50.816;12.828;2024-03-02T22:23:53;96625.56;;;3.15;100.00
30081;BME280;16902;50.816;12.828;2024-03-02T22:28:55;96624.91;;;3.13;100.00
30081;BME280;16902;50.816;12.828;2024-03-02T22:33:56;96623.66;;;3.00;100.00
30081;BME280;16902;50.816;12.828;2024-03-02T22:38:58;96618.63;;;2.99;100.00
30081;BME280;16902;50.816;12.828;2024-03-02T22:44:00;96625.88;;;2.87;100.00
30081;BME280;16902;50.816;12.828;2024-03-02T22:49:02;96625.38;;;2.75;100.00
30081;BME280;16902;50.816;12.828;2024-03-02T22:54:04;96630.19;;;2.62;100.00
30081;BME280;16902;50.816;12.828;2024-03-02T22:59:06;96634.53;;;2.62;100.00
30081;BME280;16902;50.816;12.828;2024-03-02T23:04:08;96628.91;;;2.82;100.00
30081;BME280;16902;50.816;12.828;2024-03-02T23:09:10;96630.19;;;2.62;100.00
30081;BME280;16902;50.816;12.828;2024-03-02T23:14:13;96621.94;;;2.42;100.00
30081;BME280;16902;50.816;12.828;2024-03-02T23:19:15;96630.09;;;2.29;100.00
30081;BME280;16902;50.816;12.828;2024-03-02T23:24:22;96624.63;;;2.24;100.00
30081;BME280;16902;50.816;12.828;2024-03-02T23:29:24;96613.50;;;2.16;100.00
30081;BME280;16902;50.816;12.828;2024-03-02T23:34:28;96605.22;;;2.30;100.00
30081;BME280;16902;50.816;12.828;2024-03-02T23:39:30;96616.09;;;2.24;100.00
30081;BME280;16902;50.816;12.828;2024-03-02T23:45:00;96612.31;;;2.02;100.00
30081;BME280;16902;50.816;12.828;2024-03-02T23:50:04;96606.78;;;1.80;100.00
30081;BME280;16902;50.816;12.828;2024-03-02T23:55:06;96596.59;;;1.63;100.00
